sensor_id;sensor_type;location;lat;lon;timestamp;P1;durP1;ratioP1;P2;durP2;ratioP2
5694;SDS011;2872;48.874;9.358;2023-07-02T00:00:47;3.38;;;2.10;;
5694;SDS011;2872;48.874;9.358;2023-07-02T00:03:16;2.90;;;2.30;;
5694;SDS011;2872;48.874;9.358;2023-07-02T00:05:46;4.70;;;2.20;;
5694;SDS011;2872;48.874;9.358;2023-07-02T00:08:18;2.65;;;2.03;;
5694;SDS011;2872;48.874;9.358;2023-07-02T00:10:44;3.17;;;2.40;;
5694;SDS011;2872;48.874;9.358;2023-07-02T00:13:11;5.13;;;2.67;;
5694;SDS011;2872;48.874;9.358;2023-07-02T00:15:48;2.92;;;2.28;;
5694;SDS011;2872;48.874;9.358;2023-07-02T00:18:20;2.83;;;2.03;;
5694;SDS011;2872;48.874;9.358;2023-07-02T00:20:59;4.43;;;2.58;;
5694;SDS011;2872;48.874;9.358;2023-07-02T00:23:29;3.78;;;2.20;;
5694;SDS011;2872;48.874;9.358;2023-07-02T00:26:07;7.35;;;2.13;;
5694;SDS011;2872;48.874;9.358;2023-07-02T00:28:44;3.33;;;2.03;;
5694;SDS011;2872;48.874;9.358;2023-07-02T00:31:12;2.40;;;2.20;;
5694;SDS011;2872;48.874;9.358;2023-07-02T00:33:52;2.40;;;2.10;;
5694;SDS011;2872;48.874;9.358;2023-07-02T00:36:19;3.38;;;2.30;;
5694;SDS011;2872;48.874;9.358;2023-07-02T00:38:46;4.18;;;2.60;;
5694;SDS011;2872;48.874;9.358;2023-07-02T00:41:17;4.05;;;2.45;;
5694;SDS011;2872;48.874;9.358;2023-07-02T00:43:44;2.75;;;2.33;;
5694;SDS011;2872;48.874;9.358;2023-07-02T00:46:13;4.97;;;2.40;;
5694;SDS011;2872;48.874;9.358;2023-07-02T00:48:45;3.95;;;2.20;;
5694;SDS011;2872;48.874;9.358;2023-07-02T00:51:13;5.93;;;2.72;;
5694;SDS011;2872;48.874;9.358;2023-07-02T00:53:44;3.55;;;2.20;;
5694;SDS011;2872;48.874;9.358;2023-07-02T00:56:11;5.05;;;2.83;;
5694;SDS011;2872;48.874;9.358;2023-07-02T00:58:41;4.10;;;2.90;;
5694;SDS011;2872;48.874;9.358;2023-07-02T01:01:18;4.78;;;2.55;;
5694;SDS011;2872;48.874;9.358;2023-07-02T01:03:53;5.40;;;2.23;;
5694;SDS011;2872;48.874;9.358;2023-07-02T01:06:22;3.80;;;2.70;;
5694;SDS011;2872;48.874;9.358;2023-07-02T01:08:53;3.25;;;2.35;;
5694;SDS011;2872;48.874;9.358;2023-07-02T01:11:22;3.33;;;2.55;;
5694;SDS011;2872;48.874;9.358;2023-07-02T01:13:58;4.78;;;2.63;;
5694;SDS011;2872;48.874;9.358;2023-07-02T01:16:35;5.43;;;2.58;;
5694;SDS011;2872;48.874;9.358;2023-07-02T01:19:07;2.78;;;2.17;;
5694;SDS011;2872;48.874;9.358;2023-07-02T01:21:45;3.40;;;2.35;;
5694;SDS011;2872;48.874;9.358;2023-07-02T01:24:12;5.77;;;2.40;;
5694;SDS011;2872;48.874;9.358;2023-07-02T01:26:46;3.40;;;2.40;;
5694;SDS011;2872;48.874;9.358;2023-07-02T01:29:13;2.38;;;2.00;;
5694;SDS011;2872;48.874;9.358;2023-07-02T01:31:43;8.50;;;2.50;;
5694;SDS011;2872;48.874;9.358;2023-07-02T01:34:10;2.63;;;2.05;;
5694;SDS011;2872;48.874;9.358;2023-07-02T01:36:41;2.80;;;2.10;;
5694;SDS011;2872;48.874;9.358;2023-07-02T01:39:09;2.92;;;2.20;;
5694;SDS011;2872;48.874;9.358;2023-07-02T01:41:37;3.28;;;2.10;;
5694;SDS011;2872;48.874;9.358;2023-07-02T01:44:08;4.38;;;2.42;;
5694;SDS011;2872;48.874;9.358;2023-07-02T01:46:35;2.70;;;2.10;;
5694;SDS011;2872;48.874;9.358;2023-07-02T01:49:10;2.95;;;1.95;;
5694;SDS011;2872;48.874;9.358;2023-07-02T01:51:48;2.08;;;1.88;;
5694;SDS011;2872;48.874;9.358;2023-07-02T01:54:34;3.95;;;2.30;;
5694;SDS011;2872;48.874;9.358;2023-07-02T01:57:04;11.80;;;2.50;;
5694;SDS011;2872;48.874;9.358;2023-07-02T01:59:31;3.53;;;2.20;;
5694;SDS011;2872;48.874;9.358;2023-07-02T02:01:58;6.15;;;1.90;;
5694;SDS011;2872;48.874;9.358;2023-07-02T02:04:25;3.08;;;2.28;;
5694;SDS011;2872;48.874;9.358;2023-07-02T02:06:55;3.10;;;2.33;;
5694;SDS011;2872;48.874;9.358;2023-07-02T02:09:22;4.63;;;1.90;;
5694;SDS011;2872;48.874;9.358;2023-07-02T02:12:07;3.17;;;1.90;;
5694;SDS011;2872;48.874;9.358;2023-07-02T02:14:36;1.92;;;1.83;;
5694;SDS011;2872;48.874;9.358;2023-07-02T02:17:04;4.00;;;2.42;;
5694;SDS011;2872;48.874;9.358;2023-07-02T02:19:31;3.55;;;1.70;;
5694;SDS011;2872;48.874;9.358;2023-07-02T02:21:57;5.90;;;2.35;;
5694;SDS011;2872;48.874;9.358;2023-07-02T02:24:24;3.25;;;2.20;;
5694;SDS011;2872;48.874;9.358;2023-07-02T02:27:00;2.80;;;2.15;;
5694;SDS011;2872;48.874;9.358;2023-07-02T02:29:29;4.43;;;2.20;;
5694;SDS011;2872;48.874;9.358;2023-07-02T02:31:56;4.78;;;2.33;;
5694;SDS011;2872;48.874;9.358;2023-07-02T02:34:23;2.25;;;1.90;;
5694;SDS011;2872;48.874;9.358;2023-07-02T02:36:55;2.67;;;2.10;;
5694;SDS011;2872;48.874;9.358;2023-07-02T02:39:22;2.30;;;2.10;;
5694;SDS011;2872;48.874;9.358;2023-07-02T02:41:48;5.55;;;1.92;;
5694;SDS011;2872;48.874;9.358;2023-07-02T02:44:22;3.33;;;2.20;;
5694;SDS011;2872;48.874;9.358;2023-07-02T02:46:55;2.80;;;1.55;;
5694;SDS011;2872;48.874;9.358;2023-07-02T02:49:21;3.67;;;2.20;;
5694;SDS011;2872;48.874;9.358;2023-07-02T02:51:48;2.65;;;2.10;;
5694;SDS011;2872;48.874;9.358;2023-07-02T02:54:18;4.10;;;2.08;;
5694;SDS011;2872;48.874;9.358;2023-07-02T02:56:44;4.25;;;2.13;;
5694;SDS011;2872;48.874;9.358;2023-07-02T02:59:11;2.70;;;2.28;;
5694;SDS011;2872;48.874;9.358;2023-07-02T03:01:39;4.35;;;2.30;;
5694;SDS011;2872;48.874;9.358;2023-07-02T03:04:08;2.35;;;2.10;;
5694;SDS011;2872;48.874;9.358;2023-07-02T03:06:35;3.40;;;1.90;;
5694;SDS011;2872;48.874;9.358;2023-07-02T03:09:01;5.05;;;2.10;;
5694;SDS011;2872;48.874;9.358;2023-07-02T03:11:34;4.63;;;2.03;;
5694;SDS011;2872;48.874;9.358;2023-07-02T03:14:00;3.08;;;2.20;;
5694;SDS011;2872;48.874;9.358;2023-07-02T03:16:30;4.50;;;2.10;;
5694;SDS011;2872;48.874;9.358;2023-07-02T03:18:59;4.53;;;1.90;;
5694;SDS011;2872;48.874;9.358;2023-07-02T03:21:32;2.30;;;1.60;;
5694;SDS011;2872;48.874;9.358;2023-07-02T03:23:59;4.10;;;1.90;;
5694;SDS011;2872;48.874;9.358;2023-07-02T03:26:25;4.40;;;2.30;;
5694;SDS011;2872;48.874;9.358;2023-07-02T03:28:55;5.40;;;2.57;;
5694;SDS011;2872;48.874;9.358;2023-07-02T03:31:21;2.90;;;2.30;;
5694;SDS011;2872;48.874;9.358;2023-07-02T03:33:48;3.20;;;2.60;;
5694;SDS011;2872;48.874;9.358;2023-07-02T03:36:22;3.53;;;2.40;;
5694;SDS011;2872;48.874;9.358;2023-07-02T03:38:49;5.23;;;2.90;;
5694;SDS011;2872;48.874;9.358;2023-07-02T03:41:18;8.25;;;2.65;;
5694;SDS011;2872;48.874;9.358;2023-07-02T03:43:45;9.23;;;3.60;;
5694;SDS011;2872;48.874;9.358;2023-07-02T03:46:12;8.30;;;2.75;;
5694;SDS011;2872;48.874;9.358;2023-07-02T03:48:42;3.75;;;3.00;;
5694;SDS011;2872;48.874;9.358;2023-07-02T03:51:09;5.63;;;3.20;;
5694;SDS011;2872;48.874;9.358;2023-07-02T03:53:39;4.15;;;3.08;;
5694;SDS011;2872;48.874;9.358;2023-07-02T03:56:06;6.18;;;3.40;;
5694;SDS011;2872;48.874;9.358;2023-07-02T03:58:33;8.48;;;3.90;;
5694;SDS011;2872;48.874;9.358;2023-07-02T04:01:00;9.02;;;3.22;;
5694;SDS011;2872;48.874;9.358;2023-07-02T04:03:27;8.93;;;3.53;;
5694;SDS011;2872;48.874;9.358;2023-07-02T04:05:59;7.50;;;3.40;;
5694;SDS011;2872;48.874;9.358;2023-07-02T04:08:26;8.80;;;3.40;;
5694;SDS011;2872;48.874;9.358;2023-07-02T04:10:57;7.13;;;3.00;;
5694;SDS011;2872;48.874;9.358;2023-07-02T04:13:24;6.40;;;3.60;;
5694;SDS011;2872;48.874;9.358;2023-07-02T04:15:51;10.32;;;3.80;;
5694;SDS011;2872;48.874;9.358;2023-07-02T04:18:27;9.30;;;3.70;;
5694;SDS011;2872;48.874;9.358;2023-07-02T04:20:54;9.40;;;4.20;;
5694;SDS011;2872;48.874;9.358;2023-07-02T04:23:21;7.57;;;3.80;;
5694;SDS011;2872;48.874;9.358;2023-07-02T04:25:54;13.40;;;4.75;;
5694;SDS011;2872;48.874;9.358;2023-07-02T04:28:22;15.48;;;5.75;;
5694;SDS011;2872;48.874;9.358;2023-07-02T04:30:48;9.85;;;4.90;;
5694;SDS011;2872;48.874;9.358;2023-07-02T04:33:19;12.38;;;5.13;;
5694;SDS011;2872;48.874;9.358;2023-07-02T04:35:47;9.55;;;5.03;;
5694;SDS011;2872;48.874;9.358;2023-07-02T04:38:13;13.52;;;5.10;;
5694;SDS011;2872;48.874;9.358;2023-07-02T04:40:40;9.77;;;4.80;;
5694;SDS011;2872;48.874;9.358;2023-07-02T04:43:10;9.57;;;4.70;;
5694;SDS011;2872;48.874;9.358;2023-07-02T04:45:38;10.55;;;4.55;;
5694;SDS011;2872;48.874;9.358;2023-07-02T04:48:05;13.60;;;5.07;;
5694;SDS011;2872;48.874;9.358;2023-07-02T04:50:34;13.15;;;4.50;;
5694;SDS011;2872;48.874;9.358;2023-07-02T04:53:01;14.90;;;4.57;;
5694;SDS011;2872;48.874;9.358;2023-07-02T04:55:28;10.63;;;4.77;;
5694;SDS011;2872;48.874;9.358;2023-07-02T04:57:54;11.60;;;5.00;;
5694;SDS011;2872;48.874;9.358;2023-07-02T05:00:22;14.00;;;4.55;;
5694;SDS011;2872;48.874;9.358;2023-07-02T05:02:51;9.43;;;3.97;;
5694;SDS011;2872;48.874;9.358;2023-07-02T05:05:17;15.38;;;4.93;;
5694;SDS011;2872;48.874;9.358;2023-07-02T05:07:46;10.38;;;4.50;;
5694;SDS011;2872;48.874;9.358;2023-07-02T05:10:13;10.02;;;3.80;;
5694;SDS011;2872;48.874;9.358;2023-07-02T05:12:40;9.40;;;4.07;;
5694;SDS011;2872;48.874;9.358;2023-07-02T05:15:07;10.70;;;3.83;;
5694;SDS011;2872;48.874;9.358;2023-07-02T05:17:34;7.50;;;3.70;;
5694;SDS011;2872;48.874;9.358;2023-07-02T05:20:03;6.57;;;3.10;;
5694;SDS011;2872;48.874;9.358;2023-07-02T05:22:30;7.55;;;3.00;;
5694;SDS011;2872;48.874;9.358;2023-07-02T05:25:00;7.63;;;3.00;;
5694;SDS011;2872;48.874;9.358;2023-07-02T05:27:27;6.22;;;3.10;;
5694;SDS011;2872;48.874;9.358;2023-07-02T05:29:53;8.68;;;3.28;;
5694;SDS011;2872;48.874;9.358;2023-07-02T05:32:23;5.50;;;3.42;;
5694;SDS011;2872;48.874;9.358;2023-07-02T05:34:49;7.00;;;3.80;;
5694;SDS011;2872;48.874;9.358;2023-07-02T05:37:20;6.70;;;3.13;;
5694;SDS011;2872;48.874;9.358;2023-07-02T05:39:47;7.18;;;3.17;;
5694;SDS011;2872;48.874;9.358;2023-07-02T05:42:14;3.85;;;2.67;;
5694;SDS011;2872;48.874;9.358;2023-07-02T05:44:40;6.40;;;3.00;;
5694;SDS011;2872;48.874;9.358;2023-07-02T05:47:07;11.95;;;3.42;;
5694;SDS011;2872;48.874;9.358;2023-07-02T05:49:35;11.65;;;3.38;;
5694;SDS011;2872;48.874;9.358;2023-07-02T05:52:01;5.70;;;3.33;;
5694;SDS011;2872;48.874;9.358;2023-07-02T05:54:29;7.03;;;3.50;;
5694;SDS011;2872;48.874;9.358;2023-07-02T05:56:56;10.77;;;3.50;;
5694;SDS011;2872;48.874;9.358;2023-07-02T05:59:23;8.80;;;3.00;;
5694;SDS011;2872;48.874;9.358;2023-07-02T06:01:50;7.78;;;3.30;;
5694;SDS011;2872;48.874;9.358;2023-07-02T06:04:16;8.27;;;3.40;;
5694;SDS011;2872;48.874;9.358;2023-07-02T06:06:43;12.70;;;3.90;;
5694;SDS011;2872;48.874;9.358;2023-07-02T06:09:11;10.25;;;3.88;;
5694;SDS011;2872;48.874;9.358;2023-07-02T06:11:39;9.13;;;3.80;;
5694;SDS011;2872;48.874;9.358;2023-07-02T06:14:06;16.70;;;5.10;;
5694;SDS011;2872;48.874;9.358;2023-07-02T06:16:35;16.52;;;4.97;;
5694;SDS011;2872;48.874;9.358;2023-07-02T06:19:01;14.07;;;5.30;;
5694;SDS011;2872;48.874;9.358;2023-07-02T06:21:28;14.48;;;5.53;;
5694;SDS011;2872;48.874;9.358;2023-07-02T06:24:06;11.43;;;4.75;;
5694;SDS011;2872;48.874;9.358;2023-07-02T06:26:41;16.20;;;5.10;;
5694;SDS011;2872;48.874;9.358;2023-07-02T06:29:07;12.05;;;5.25;;
5694;SDS011;2872;48.874;9.358;2023-07-02T06:31:40;12.27;;;5.05;;
5694;SDS011;2872;48.874;9.358;2023-07-02T06:34:07;12.38;;;4.68;;
5694;SDS011;2872;48.874;9.358;2023-07-02T06:36:34;12.95;;;5.05;;
5694;SDS011;2872;48.874;9.358;2023-07-02T06:39:03;12.18;;;4.30;;
5694;SDS011;2872;48.874;9.358;2023-07-02T06:41:30;14.50;;;5.35;;
5694;SDS011;2872;48.874;9.358;2023-07-02T06:43:58;12.73;;;5.00;;
5694;SDS011;2872;48.874;9.358;2023-07-02T06:46:25;11.70;;;4.85;;
5694;SDS011;2872;48.874;9.358;2023-07-02T06:48:51;13.87;;;5.27;;
5694;SDS011;2872;48.874;9.358;2023-07-02T06:51:18;9.02;;;4.65;;
5694;SDS011;2872;48.874;9.358;2023-07-02T06:53:47;10.90;;;5.10;;
5694;SDS011;2872;48.874;9.358;2023-07-02T06:56:14;11.85;;;5.65;;
5694;SDS011;2872;48.874;9.358;2023-07-02T06:58:41;12.80;;;5.05;;
5694;SDS011;2872;48.874;9.358;2023-07-02T07:01:10;16.50;;;6.80;;
5694;SDS011;2872;48.874;9.358;2023-07-02T07:03:37;10.65;;;5.57;;
5694;SDS011;2872;48.874;9.358;2023-07-02T07:06:04;13.95;;;6.25;;
5694;SDS011;2872;48.874;9.358;2023-07-02T07:08:31;15.25;;;5.30;;
5694;SDS011;2872;48.874;9.358;2023-07-02T07:10:59;13.13;;;6.00;;
5694;SDS011;2872;48.874;9.358;2023-07-02T07:13:26;18.13;;;6.90;;
5694;SDS011;2872;48.874;9.358;2023-07-02T07:15:52;13.50;;;5.57;;
5694;SDS011;2872;48.874;9.358;2023-07-02T07:18:20;12.70;;;5.70;;
5694;SDS011;2872;48.874;9.358;2023-07-02T07:20:47;13.25;;;6.32;;
5694;SDS011;2872;48.874;9.358;2023-07-02T07:23:19;16.83;;;6.87;;
5694;SDS011;2872;48.874;9.358;2023-07-02T07:25:46;17.92;;;6.80;;
5694;SDS011;2872;48.874;9.358;2023-07-02T07:28:12;18.05;;;6.65;;
5694;SDS011;2872;48.874;9.358;2023-07-02T07:30:40;10.98;;;5.93;;
5694;SDS011;2872;48.874;9.358;2023-07-02T07:33:07;14.90;;;5.77;;
5694;SDS011;2872;48.874;9.358;2023-07-02T07:35:35;16.90;;;6.30;;
5694;SDS011;2872;48.874;9.358;2023-07-02T07:38:02;15.57;;;7.13;;
5694;SDS011;2872;48.874;9.358;2023-07-02T07:40:31;26.55;;;8.50;;
5694;SDS011;2872;48.874;9.358;2023-07-02T07:42:58;17.13;;;7.20;;
5694;SDS011;2872;48.874;9.358;2023-07-02T07:45:24;19.33;;;9.00;;
5694;SDS011;2872;48.874;9.358;2023-07-02T07:47:51;17.45;;;8.30;;
5694;SDS011;2872;48.874;9.358;2023-07-02T07:50:18;16.37;;;7.27;;
5694;SDS011;2872;48.874;9.358;2023-07-02T07:52:48;19.80;;;8.20;;
5694;SDS011;2872;48.874;9.358;2023-07-02T07:55:16;17.02;;;7.85;;
5694;SDS011;2872;48.874;9.358;2023-07-02T07:57:43;22.08;;;8.82;;
5694;SDS011;2872;48.874;9.358;2023-07-02T08:00:13;15.40;;;8.35;;
5694;SDS011;2872;48.874;9.358;2023-07-02T08:02:41;17.40;;;8.70;;
5694;SDS011;2872;48.874;9.358;2023-07-02T08:05:07;20.85;;;8.52;;
5694;SDS011;2872;48.874;9.358;2023-07-02T08:07:40;25.43;;;10.37;;
5694;SDS011;2872;48.874;9.358;2023-07-02T08:10:08;19.98;;;10.10;;
5694;SDS011;2872;48.874;9.358;2023-07-02T08:12:38;27.75;;;10.50;;
5694;SDS011;2872;48.874;9.358;2023-07-02T08:15:05;22.15;;;9.27;;
5694;SDS011;2872;48.874;9.358;2023-07-02T08:17:33;21.33;;;9.45;;
5694;SDS011;2872;48.874;9.358;2023-07-02T08:19:59;21.85;;;9.55;;
5694;SDS011;2872;48.874;9.358;2023-07-02T08:22:27;21.10;;;9.70;;
5694;SDS011;2872;48.874;9.358;2023-07-02T08:24:54;19.37;;;9.73;;
5694;SDS011;2872;48.874;9.358;2023-07-02T08:27:22;22.45;;;9.63;;
5694;SDS011;2872;48.874;9.358;2023-07-02T08:29:51;20.20;;;9.60;;
5694;SDS011;2872;48.874;9.358;2023-07-02T08:32:18;17.38;;;9.80;;
5694;SDS011;2872;48.874;9.358;2023-07-02T08:34:48;20.85;;;10.32;;
5694;SDS011;2872;48.874;9.358;2023-07-02T08:37:15;24.27;;;11.00;;
5694;SDS011;2872;48.874;9.358;2023-07-02T08:39:42;26.20;;;10.60;;
5694;SDS011;2872;48.874;9.358;2023-07-02T08:42:12;21.10;;;9.65;;
5694;SDS011;2872;48.874;9.358;2023-07-02T08:44:40;25.90;;;10.57;;
5694;SDS011;2872;48.874;9.358;2023-07-02T08:47:07;22.75;;;10.73;;
5694;SDS011;2872;48.874;9.358;2023-07-02T08:49:34;25.05;;;10.00;;
5694;SDS011;2872;48.874;9.358;2023-07-02T08:52:07;27.45;;;10.90;;
5694;SDS011;2872;48.874;9.358;2023-07-02T08:54:34;25.15;;;11.43;;
5694;SDS011;2872;48.874;9.358;2023-07-02T08:57:00;24.35;;;10.07;;
5694;SDS011;2872;48.874;9.358;2023-07-02T08:59:36;24.45;;;10.43;;
5694;SDS011;2872;48.874;9.358;2023-07-02T09:02:04;26.00;;;11.27;;
5694;SDS011;2872;48.874;9.358;2023-07-02T09:04:37;24.70;;;10.00;;
5694;SDS011;2872;48.874;9.358;2023-07-02T09:07:10;22.95;;;10.80;;
5694;SDS011;2872;48.874;9.358;2023-07-02T09:09:44;22.00;;;10.60;;
5694;SDS011;2872;48.874;9.358;2023-07-02T09:12:21;21.40;;;10.20;;
5694;SDS011;2872;48.874;9.358;2023-07-02T09:14:53;21.80;;;9.48;;
5694;SDS011;2872;48.874;9.358;2023-07-02T09:17:28;26.50;;;10.80;;
5694;SDS011;2872;48.874;9.358;2023-07-02T09:19:55;23.88;;;10.27;;
5694;SDS011;2872;48.874;9.358;2023-07-02T09:22:27;24.15;;;10.15;;
5694;SDS011;2872;48.874;9.358;2023-07-02T09:24:53;23.05;;;10.55;;
5694;SDS011;2872;48.874;9.358;2023-07-02T09:27:36;26.23;;;9.88;;
5694;SDS011;2872;48.874;9.358;2023-07-02T09:30:07;26.58;;;10.55;;
5694;SDS011;2872;48.874;9.358;2023-07-02T09:32:36;25.38;;;10.77;;
5694;SDS011;2872;48.874;9.358;2023-07-02T09:35:09;19.58;;;9.40;;
5694;SDS011;2872;48.874;9.358;2023-07-02T09:37:36;29.83;;;10.30;;
5694;SDS011;2872;48.874;9.358;2023-07-02T09:40:09;23.58;;;10.38;;
5694;SDS011;2872;48.874;9.358;2023-07-02T09:42:36;21.65;;;10.63;;
5694;SDS011;2872;48.874;9.358;2023-07-02T09:45:05;22.80;;;10.65;;
5694;SDS011;2872;48.874;9.358;2023-07-02T09:47:43;26.88;;;11.52;;
5694;SDS011;2872;48.874;9.358;2023-07-02T09:50:12;22.13;;;10.50;;
5694;SDS011;2872;48.874;9.358;2023-07-02T09:52:39;29.08;;;10.32;;
5694;SDS011;2872;48.874;9.358;2023-07-02T09:55:07;25.13;;;10.23;;
5694;SDS011;2872;48.874;9.358;2023-07-02T09:57:34;27.75;;;12.15;;
5694;SDS011;2872;48.874;9.358;2023-07-02T10:00:01;27.08;;;11.25;;
5694;SDS011;2872;48.874;9.358;2023-07-02T10:02:35;29.50;;;12.37;;
5694;SDS011;2872;48.874;9.358;2023-07-02T10:05:06;23.70;;;11.30;;
5694;SDS011;2872;48.874;9.358;2023-07-02T10:07:33;27.00;;;11.67;;
5694;SDS011;2872;48.874;9.358;2023-07-02T10:09:59;22.73;;;11.25;;
5694;SDS011;2872;48.874;9.358;2023-07-02T10:12:29;24.58;;;11.10;;
5694;SDS011;2872;48.874;9.358;2023-07-02T10:14:56;26.50;;;11.20;;
5694;SDS011;2872;48.874;9.358;2023-07-02T10:17:24;23.60;;;10.93;;
5694;SDS011;2872;48.874;9.358;2023-07-02T10:19:56;28.77;;;11.02;;
5694;SDS011;2872;48.874;9.358;2023-07-02T10:22:25;27.97;;;12.00;;
5694;SDS011;2872;48.874;9.358;2023-07-02T10:24:56;27.70;;;12.25;;
5694;SDS011;2872;48.874;9.358;2023-07-02T10:27:33;26.67;;;11.07;;
5694;SDS011;2872;48.874;9.358;2023-07-02T10:30:01;22.53;;;11.30;;
5694;SDS011;2872;48.874;9.358;2023-07-02T10:32:29;31.48;;;11.93;;
5694;SDS011;2872;48.874;9.358;2023-07-02T10:34:56;26.77;;;12.10;;
5694;SDS011;2872;48.874;9.358;2023-07-02T10:37:26;25.30;;;12.20;;
5694;SDS011;2872;48.874;9.358;2023-07-02T10:39:53;23.23;;;11.40;;
5694;SDS011;2872;48.874;9.358;2023-07-02T10:42:20;21.77;;;10.40;;
5694;SDS011;2872;48.874;9.358;2023-07-02T10:44:47;23.20;;;10.93;;
5694;SDS011;2872;48.874;9.358;2023-07-02T10:47:17;26.25;;;11.88;;
5694;SDS011;2872;48.874;9.358;2023-07-02T10:49:44;21.70;;;10.80;;
5694;SDS011;2872;48.874;9.358;2023-07-02T10:52:11;22.95;;;11.60;;
5694;SDS011;2872;48.874;9.358;2023-07-02T10:54:43;24.98;;;10.82;;
5694;SDS011;2872;48.874;9.358;2023-07-02T10:57:12;23.35;;;10.75;;
5694;SDS011;2872;48.874;9.358;2023-07-02T10:59:42;25.17;;;11.60;;
5694;SDS011;2872;48.874;9.358;2023-07-02T11:02:08;27.17;;;12.48;;
5694;SDS011;2872;48.874;9.358;2023-07-02T11:04:35;24.27;;;11.80;;
5694;SDS011;2872;48.874;9.358;2023-07-02T11:07:03;26.13;;;12.10;;
5694;SDS011;2872;48.874;9.358;2023-07-02T11:09:30;24.30;;;12.03;;
5694;SDS011;2872;48.874;9.358;2023-07-02T11:11:59;25.65;;;11.05;;
5694;SDS011;2872;48.874;9.358;2023-07-02T11:14:29;23.50;;;11.77;;
5694;SDS011;2872;48.874;9.358;2023-07-02T11:16:56;23.67;;;10.47;;
5694;SDS011;2872;48.874;9.358;2023-07-02T11:19:23;21.20;;;10.77;;
5694;SDS011;2872;48.874;9.358;2023-07-02T11:21:51;24.15;;;10.70;;
5694;SDS011;2872;48.874;9.358;2023-07-02T11:24:28;26.77;;;11.93;;
5694;SDS011;2872;48.874;9.358;2023-07-02T11:26:56;26.60;;;11.50;;
5694;SDS011;2872;48.874;9.358;2023-07-02T11:29:24;24.08;;;10.68;;
5694;SDS011;2872;48.874;9.358;2023-07-02T11:31:54;24.55;;;11.70;;
5694;SDS011;2872;48.874;9.358;2023-07-02T11:34:22;22.52;;;11.20;;
5694;SDS011;2872;48.874;9.358;2023-07-02T11:36:49;21.15;;;10.27;;
5694;SDS011;2872;48.874;9.358;2023-07-02T11:39:19;22.55;;;11.80;;
5694;SDS011;2872;48.874;9.358;2023-07-02T11:41:45;27.70;;;12.38;;
5694;SDS011;2872;48.874;9.358;2023-07-02T11:44:13;30.58;;;12.63;;
5694;SDS011;2872;48.874;9.358;2023-07-02T11:46:45;24.10;;;12.15;;
5694;SDS011;2872;48.874;9.358;2023-07-02T11:49:12;30.45;;;11.23;;
5694;SDS011;2872;48.874;9.358;2023-07-02T11:51:39;24.53;;;11.70;;
5694;SDS011;2872;48.874;9.358;2023-07-02T11:54:06;27.15;;;12.10;;
5694;SDS011;2872;48.874;9.358;2023-07-02T11:56:43;23.08;;;11.70;;
5694;SDS011;2872;48.874;9.358;2023-07-02T11:59:10;30.17;;;12.50;;
5694;SDS011;2872;48.874;9.358;2023-07-02T12:01:38;19.60;;;10.53;;
5694;SDS011;2872;48.874;9.358;2023-07-02T12:04:06;25.33;;;11.75;;
5694;SDS011;2872;48.874;9.358;2023-07-02T12:06:33;31.70;;;11.93;;
5694;SDS011;2872;48.874;9.358;2023-07-02T12:09:02;20.83;;;11.23;;
5694;SDS011;2872;48.874;9.358;2023-07-02T12:11:30;26.83;;;13.00;;
5694;SDS011;2872;48.874;9.358;2023-07-02T12:13:58;23.00;;;12.23;;
5694;SDS011;2872;48.874;9.358;2023-07-02T12:16:28;22.83;;;12.00;;
5694;SDS011;2872;48.874;9.358;2023-07-02T12:18:54;23.08;;;11.20;;
5694;SDS011;2872;48.874;9.358;2023-07-02T12:21:23;27.73;;;11.93;;
5694;SDS011;2872;48.874;9.358;2023-07-02T12:23:49;20.95;;;10.00;;
5694;SDS011;2872;48.874;9.358;2023-07-02T12:26:19;24.60;;;11.05;;
5694;SDS011;2872;48.874;9.358;2023-07-02T12:28:45;22.58;;;10.75;;
5694;SDS011;2872;48.874;9.358;2023-07-02T12:31:12;20.33;;;10.25;;
5694;SDS011;2872;48.874;9.358;2023-07-02T12:33:38;20.15;;;10.20;;
5694;SDS011;2872;48.874;9.358;2023-07-02T12:36:09;23.95;;;11.75;;
5694;SDS011;2872;48.874;9.358;2023-07-02T12:38:37;22.35;;;11.82;;
5694;SDS011;2872;48.874;9.358;2023-07-02T12:41:04;20.95;;;10.52;;
5694;SDS011;2872;48.874;9.358;2023-07-02T12:43:33;22.10;;;11.05;;
5694;SDS011;2872;48.874;9.358;2023-07-02T12:46:01;26.65;;;11.45;;
5694;SDS011;2872;48.874;9.358;2023-07-02T12:48:27;24.13;;;11.00;;
5694;SDS011;2872;48.874;9.358;2023-07-02T12:50:54;19.75;;;10.38;;
5694;SDS011;2872;48.874;9.358;2023-07-02T12:53:23;24.20;;;11.40;;
5694;SDS011;2872;48.874;9.358;2023-07-02T12:55:52;19.90;;;10.90;;
5694;SDS011;2872;48.874;9.358;2023-07-02T12:58:18;24.17;;;11.48;;
5694;SDS011;2872;48.874;9.358;2023-07-02T13:00:47;23.63;;;11.27;;
5694;SDS011;2872;48.874;9.358;2023-07-02T13:03:14;24.63;;;12.40;;
5694;SDS011;2872;48.874;9.358;2023-07-02T13:05:47;23.53;;;11.93;;
5694;SDS011;2872;48.874;9.358;2023-07-02T13:08:13;22.88;;;11.43;;
5694;SDS011;2872;48.874;9.358;2023-07-02T13:10:40;26.67;;;12.02;;
5694;SDS011;2872;48.874;9.358;2023-07-02T13:13:08;25.63;;;12.20;;
5694;SDS011;2872;48.874;9.358;2023-07-02T13:15:37;20.38;;;11.45;;
5694;SDS011;2872;48.874;9.358;2023-07-02T13:18:04;20.95;;;10.85;;
5694;SDS011;2872;48.874;9.358;2023-07-02T13:20:30;23.42;;;11.50;;
5694;SDS011;2872;48.874;9.358;2023-07-02T13:23:03;28.35;;;10.93;;
5694;SDS011;2872;48.874;9.358;2023-07-02T13:25:30;23.43;;;10.80;;
5694;SDS011;2872;48.874;9.358;2023-07-02T13:27:58;19.30;;;10.75;;
5694;SDS011;2872;48.874;9.358;2023-07-02T13:30:26;20.77;;;11.37;;
5694;SDS011;2872;48.874;9.358;2023-07-02T13:32:53;24.07;;;10.97;;
5694;SDS011;2872;48.874;9.358;2023-07-02T13:35:23;22.42;;;11.73;;
5694;SDS011;2872;48.874;9.358;2023-07-02T13:37:49;25.67;;;11.25;;
5694;SDS011;2872;48.874;9.358;2023-07-02T13:40:16;22.92;;;11.02;;
5694;SDS011;2872;48.874;9.358;2023-07-02T13:42:43;21.92;;;10.80;;
5694;SDS011;2872;48.874;9.358;2023-07-02T13:45:12;22.83;;;11.25;;
5694;SDS011;2872;48.874;9.358;2023-07-02T13:47:40;24.73;;;11.90;;
5694;SDS011;2872;48.874;9.358;2023-07-02T13:50:07;21.00;;;10.88;;
5694;SDS011;2872;48.874;9.358;2023-07-02T13:52:39;20.15;;;11.27;;
5694;SDS011;2872;48.874;9.358;2023-07-02T13:55:06;26.88;;;11.40;;
5694;SDS011;2872;48.874;9.358;2023-07-02T13:57:33;21.70;;;11.88;;
5694;SDS011;2872;48.874;9.358;2023-07-02T14:00:02;51.57;;;25.43;;
5694;SDS011;2872;48.874;9.358;2023-07-02T14:02:29;21.88;;;12.00;;
5694;SDS011;2872;48.874;9.358;2023-07-02T14:05:00;21.10;;;10.90;;
5694;SDS011;2872;48.874;9.358;2023-07-02T14:07:26;21.52;;;11.30;;
5694;SDS011;2872;48.874;9.358;2023-07-02T14:09:53;21.50;;;11.20;;
5694;SDS011;2872;48.874;9.358;2023-07-02T14:12:23;24.08;;;11.70;;
5694;SDS011;2872;48.874;9.358;2023-07-02T14:14:50;23.85;;;11.93;;
5694;SDS011;2872;48.874;9.358;2023-07-02T14:17:18;26.97;;;11.83;;
5694;SDS011;2872;48.874;9.358;2023-07-02T14:19:47;21.05;;;11.20;;
5694;SDS011;2872;48.874;9.358;2023-07-02T14:22:14;21.58;;;11.30;;
5694;SDS011;2872;48.874;9.358;2023-07-02T14:24:40;20.85;;;10.80;;
5694;SDS011;2872;48.874;9.358;2023-07-02T14:27:13;19.80;;;10.53;;
5694;SDS011;2872;48.874;9.358;2023-07-02T14:29:40;28.75;;;11.55;;
5694;SDS011;2872;48.874;9.358;2023-07-02T14:32:07;21.30;;;11.03;;
5694;SDS011;2872;48.874;9.358;2023-07-02T14:34:37;22.40;;;10.68;;
5694;SDS011;2872;48.874;9.358;2023-07-02T14:37:04;22.88;;;11.75;;
5694;SDS011;2872;48.874;9.358;2023-07-02T14:39:38;22.73;;;11.48;;
5694;SDS011;2872;48.874;9.358;2023-07-02T14:42:04;19.48;;;10.57;;
5694;SDS011;2872;48.874;9.358;2023-07-02T14:44:35;19.85;;;10.07;;
5694;SDS011;2872;48.874;9.358;2023-07-02T14:47:02;24.10;;;11.20;;
5694;SDS011;2872;48.874;9.358;2023-07-02T14:49:28;20.63;;;11.10;;
5694;SDS011;2872;48.874;9.358;2023-07-02T14:51:56;20.15;;;10.27;;
5694;SDS011;2872;48.874;9.358;2023-07-02T14:54:26;21.20;;;10.80;;
5694;SDS011;2872;48.874;9.358;2023-07-02T14:56:52;24.45;;;11.23;;
5694;SDS011;2872;48.874;9.358;2023-07-02T14:59:28;22.02;;;12.23;;
5694;SDS011;2872;48.874;9.358;2023-07-02T15:01:55;21.60;;;10.98;;
5694;SDS011;2872;48.874;9.358;2023-07-02T15:04:28;19.65;;;10.35;;
5694;SDS011;2872;48.874;9.358;2023-07-02T15:06:56;18.85;;;10.10;;
5694;SDS011;2872;48.874;9.358;2023-07-02T15:09:26;23.63;;;11.65;;